Time;durP1;ratioP1;P1;durP2;ratioP2;P2;SDS_P1;SDS_P2;PMS_P1;PMS_P2;Temp;Humidity;BMP_temperature;BMP_pressure;BME280_temperature;BME280_humidity;BME280_pressure;Samples;Min_cycle;Max_cycle;Signal;HPM_P1;HPM_P2
2022/10/18 00:00:01;;;;;;;;;;;13.30;87.40;;;;;;2065458;28;19912;-87
2022/10/18 00:01:01;;;;;;;;;;;13.30;87.60;;;;;;2052135;28;21631;-87
2022/10/18 00:02:02;;;;;;;;;;;13.30;87.50;;;;;;2052265;28;20011;-88
2022/10/18 00:03:03;;;;;;;;;;;13.30;87.60;;;;;;2053224;28;19925;-87
2022/10/18 00:04:04;;;;;;;;;;;13.30;87.50;;;;;;2052162;28;19906;-87
2022/10/18 00:05:05;;;;;;;;;;;13.30;87.60;;;;;;2048329;28;20236;-89
2022/10/18 00:06:07;;;;;;;;;;;13.30;87.70;;;;;;2052169;28;20064;-88
2022/10/18 00:07:08;;;;;;;;;;;13.30;87.70;;;;;;2067501;28;19905;-89
2022/10/18 00:08:09;;;;;;;;;;;13.30;87.60;;;;;;2054332;28;19910;-89
2022/10/18 00:09:10;;;;;;;;;;;13.30;87.40;;;;;;2051907;28;20449;-87
2022/10/18 00:10:11;;;;;;;;;;;13.20;87.30;;;;;;2049145;29;19907;-89
2022/10/18 00:11:11;;;;;;;;;;;13.20;87.50;;;;;;2052175;28;19974;-89
2022/10/18 00:12:12;;;;;;;;;;;13.20;87.30;;;;;;2059750;28;20333;-88
2022/10/18 00:13:13;;;;;;;;;;;13.20;87.50;;;;;;2046190;29;19921;-87
2022/10/18 00:14:13;;;;;;;;;;;13.20;87.60;;;;;;2052031;28;20264;-86
2022/10/18 00:15:14;;;;;;;;;;;13.20;87.50;;;;;;2056848;28;20013;-88
2022/10/18 00:16:16;;;;;;;;;;;13.20;87.60;;;;;;2052042;29;19921;-87
2022/10/18 00:17:17;;;;;;;;;;;13.20;87.60;;;;;;2055551;28;20388;-86
2022/10/18 00:18:18;;;;;;;;;;;13.20;87.60;;;;;;2051207;29;19914;-88
2022/10/18 00:19:19;;;;;;;;;;;13.20;87.60;;;;;;2051781;29;19934;-88
2022/10/18 00:20:19;;;;;;;;;;;13.20;87.60;;;;;;2052028;29;19914;-88
2022/10/18 00:21:21;;;;;;;;;;;13.20;87.50;;;;;;2059811;28;19914;-89
2022/10/18 00:22:22;;;;;;;;;;;13.20;87.60;;;;;;2052040;28;19914;-84
2022/10/18 00:23:23;;;;;;;;;;;13.20;87.70;;;;;;2059842;28;19942;-90
2022/10/18 00:24:23;;;;;;;;;;;13.20;87.80;;;;;;2057510;28;19988;-87
2022/10/18 00:25:24;;;;;;;;;;;13.20;87.70;;;;;;2043150;29;19946;-87
2022/10/18 00:26:26;;;;;;;;;;;13.20;87.80;;;;;;2051877;29;19917;-87
2022/10/18 00:27:30;;;;;;;;;;;13.20;87.70;;;;;;2051907;28;19914;-89
2022/10/18 00:28:32;;;;;;;;;;;13.10;87.50;;;;;;2059680;28;19906;-88
2022/10/18 00:29:33;;;;;;;;;;;13.20;87.40;;;;;;2059485;28;19921;-89
2022/10/18 00:30:33;;;;;;;;;;;13.20;87.60;;;;;;2043745;29;19937;-87
2022/10/18 00:31:35;;;;;;;;;;;13.10;87.20;;;;;;2043716;29;20334;-84
2022/10/18 00:32:39;;;;;;;;;;;13.10;87.20;;;;;;2059196;28;20254;-88
2022/10/18 00:33:41;;;;;;;;;;;13.10;87.20;;;;;;2067058;28;19937;-88
2022/10/18 00:34:41;;;;;;;;;;;13.10;87.20;;;;;;2051642;28;20385;-88
2022/10/18 00:35:42;;;;;;;;;;;13.10;87.20;;;;;;2059691;28;19905;-85
2022/10/18 00:36:43;;;;;;;;;;;13.10;87.20;;;;;;2047258;29;20359;-86
2022/10/18 00:37:44;;;;;;;;;;;13.10;87.30;;;;;;2043774;29;20306;-89
2022/10/18 00:38:45;;;;;;;;;;;13.10;86.90;;;;;;2051293;29;19906;-86
2022/10/18 00:39:46;;;;;;;;;;;13.10;86.90;;;;;;2067814;28;20308;-89
2022/10/18 00:40:46;;;;;;;;;;;13.10;87.20;;;;;;2067806;28;19965;-90
2022/10/18 00:41:47;;;;;;;;;;;13.00;87.00;;;;;;2059884;28;19967;-90
2022/10/18 00:42:48;;;;;;;;;;;13.10;87.30;;;;;;2067836;28;19909;-86
2022/10/18 00:43:53;;;;;;;;;;;13.00;87.00;;;;;;2052158;29;19907;-87
2022/10/18 00:45:12;;;;;;;;;;;13.00;87.20;;;;;;2060263;28;19965;-90
2022/10/18 00:46:13;;;;;;;;;;;13.00;86.90;;;;;;2057364;28;20077;-87
2022/10/18 00:47:15;;;;;;;;;;;13.00;87.20;;;;;;2051940;29;19937;-89
2022/10/18 00:48:17;;;;;;;;;;;13.00;86.90;;;;;;2066271;28;19956;-88
2022/10/18 00:49:20;;;;;;;;;;;13.00;87.00;;;;;;2059568;28;20025;-87
2022/10/18 00:50:21;;;;;;;;;;;13.00;86.80;;;;;;2060346;28;19941;-89
2022/10/18 00:51:24;;;;;;;;;;;13.00;86.80;;;;;;2067948;28;19921;-87
2022/10/18 00:52:26;;;;;;;;;;;13.00;86.90;;;;;;2058905;28;19914;-85
2022/10/18 00:53:27;;;;;;;;;;;13.00;86.80;;;;;;2051934;28;19911;-87
2022/10/18 00:54:29;;;;;;;;;;;13.00;86.80;;;;;;2053542;28;19910;-86
2022/10/18 00:55:31;;;;;;;;;;;13.00;86.70;;;;;;2059692;28;19910;-85
2022/10/18 00:56:33;;;;;;;;;;;12.90;86.80;;;;;;2051727;28;20028;-89
2022/10/18 00:57:33;;;;;;;;;;;13.00;86.90;;;;;;2051794;28;19906;-86
2022/10/18 00:58:34;;;;;;;;;;;12.90;86.90;;;;;;2057394;28;20373;-86
2022/10/18 00:59:36;;;;;;;;;;;12.90;86.70;;;;;;2061492;28;19979;-88
2022/10/18 01:00:39;;;;;;;;;;;12.90;86.70;;;;;;2045874;28;19906;-87
2022/10/18 01:01:40;;;;;;;;;;;12.90;86.70;;;;;;2056758;28;19910;-89
2022/10/18 01:02:42;;;;;;;;;;;12.90;86.70;;;;;;2059997;28;19965;-85
2022/10/18 01:03:42;;;;;;;;;;;12.90;86.80;;;;;;2059792;28;19906;-88
2022/10/18 01:04:44;;;;;;;;;;;12.90;86.80;;;;;;2055138;28;19918;-85
2022/10/18 01:05:46;;;;;;;;;;;12.90;86.80;;;;;;2050935;29;19961;-84
2022/10/18 01:06:54;;;;;;;;;;;12.80;86.80;;;;;;2048487;29;20065;-86
2022/10/18 01:08:04;;;;;;;;;;;12.80;86.80;;;;;;2046061;28;20001;-88
2022/10/18 01:09:27;;;;;;;;;;;12.90;86.90;;;;;;2051743;28;19921;-88
2022/10/18 01:10:33;;;;;;;;;;;12.80;86.90;;;;;;2053315;28;20280;-90
2022/10/18 01:11:34;;;;;;;;;;;12.80;86.90;;;;;;2059691;28;19972;-87
2022/10/18 01:12:38;;;;;;;;;;;12.80;86.80;;;;;;2059448;28;19910;-87
2022/10/18 01:13:41;;;;;;;;;;;12.80;87.00;;;;;;2059760;28;19914;-88
2022/10/18 01:15:02;;;;;;;;;;;12.80;86.90;;;;;;2051737;28;19996;-89
2022/10/18 01:16:05;;;;;;;;;;;12.80;87.00;;;;;;2062271;28;19910;-89
2022/10/18 01:17:18;;;;;;;;;;;12.80;86.90;;;;;;2059422;28;19937;-88
2022/10/18 01:18:19;;;;;;;;;;;12.80;87.00;;;;;;2044587;29;20023;-89
2022/10/18 01:21:16;;;;;;;;;;;12.80;87.10;;;;;;2061927;28;19925;-89
2022/10/18 01:22:23;;;;;;;;;;;12.80;86.90;;;;;;2063853;28;19905;-86
2022/10/18 01:23:43;;;;;;;;;;;12.80;86.80;;;;;;2067180;28;19929;-89
2022/10/18 01:24:49;;;;;;;;;;;12.80;87.60;;;;;;2048942;29;20001;-87
2022/10/18 01:26:02;;;;;;;;;;;12.80;86.90;;;;;;2039093;29;19951;-87
2022/10/18 01:27:19;;;;;;;;;;;12.70;86.80;;;;;;2046741;28;19911;-88
2022/10/18 01:28:38;;;;;;;;;;;12.70;86.90;;;;;;2059581;28;20000;-85
2022/10/18 01:31:54;;;;;;;;;;;12.70;87.50;;;;;;2066850;28;19928;-88
2022/10/18 01:32:59;;;;;;;;;;;12.70;87.00;;;;;;2056885;28;19953;-88
2022/10/18 01:34:02;;;;;;;;;;;12.70;87.20;;;;;;2045435;28;19907;-88
2022/10/18 01:35:06;;;;;;;;;;;12.70;87.10;;;;;;2049804;28;19917;-89
2022/10/18 01:36:16;;;;;;;;;;;12.70;86.90;;;;;;2043967;29;19914;-88
2022/10/18 01:37:18;;;;;;;;;;;12.70;86.80;;;;;;2052597;28;19938;-90
2022/10/18 01:38:20;;;;;;;;;;;12.60;86.70;;;;;;2047518;29;19918;-88
2022/10/18 01:39:23;;;;;;;;;;;12.60;86.60;;;;;;2046488;29;19910;-87
2022/10/18 01:40:24;;;;;;;;;;;12.70;86.70;;;;;;2044162;28;19950;-88
2022/10/18 01:41:26;;;;;;;;;;;12.70;86.60;;;;;;2051459;28;19910;-88
2022/10/18 01:42:27;;;;;;;;;;;12.60;86.40;;;;;;2043630;29;20008;-88
2022/10/18 01:43:28;;;;;;;;;;;12.60;86.30;;;;;;2043423;29;19906;-89
2022/10/18 01:44:30;;;;;;;;;;;12.60;86.60;;;;;;2051219;28;19913;-88
2022/10/18 01:45:31;;;;;;;;;;;12.60;86.60;;;;;;2050399;28;19957;-88
2022/10/18 01:46:32;;;;;;;;;;;12.60;86.40;;;;;;2057573;28;19921;-87
2022/10/18 01:47:34;;;;;;;;;;;12.60;86.40;;;;;;2050817;28;19907;-85
2022/10/18 01:48:36;;;;;;;;;;;12.60;86.40;;;;;;2043287;29;19934;-90
2022/10/18 01:49:37;;;;;;;;;;;12.60;86.50;;;;;;2051514;28;19906;-89
2022/10/18 01:50:38;;;;;;;;;;;12.50;86.60;;;;;;2059159;28;19962;-89
2022/10/18 01:51:39;;;;;;;;;;;12.60;86.50;;;;;;2050272;29;20004;-87
2022/10/18 01:52:49;;;;;;;;;;;12.50;86.70;;;;;;2051044;29;19961;-87
2022/10/18 01:53:49;;;;;;;;;;;12.50;86.50;;;;;;2059073;28;20370;-88
2022/10/18 01:54:51;;;;;;;;;;;12.50;86.70;;;;;;2059070;28;19918;-88
2022/10/18 01:56:04;;;;;;;;;;;12.50;86.70;;;;;;2059009;28;19917;-88
2022/10/18 01:57:17;;;;;;;;;;;12.50;86.70;;;;;;2052381;28;19993;-88
2022/10/18 01:58:21;;;;;;;;;;;12.50;86.60;;;;;;2060646;28;19972;-87
2022/10/18 02:01:19;;;;;;;;;;;12.50;87.00;;;;;;2065987;28;19968;-85
2022/10/18 02:02:28;;;;;;;;;;;12.50;87.10;;;;;;2057882;28;19906;-86
2022/10/18 02:03:29;;;;;;;;;;;12.40;86.90;;;;;;2048306;29;19914;-90
2022/10/18 02:04:40;;;;;;;;;;;12.40;87.40;;;;;;2042907;29;19911;-86
2022/10/18 02:05:47;;;;;;;;;;;12.40;86.60;;;;;;2044979;28;19945;-88
2022/10/18 02:06:50;;;;;;;;;;;12.40;86.50;;;;;;2054157;28;20340;-88
2022/10/18 02:07:54;;;;;;;;;;;12.40;86.70;;;;;;2059108;28;19920;-85
2022/10/18 02:09:08;;;;;;;;;;;12.40;86.80;;;;;;2043453;29;19950;-87
2022/10/18 02:10:15;;;;;;;;;;;12.40;86.90;;;;;;2049754;28;19942;-86
2022/10/18 02:11:16;;;;;;;;;;;12.40;87.00;;;;;;2050963;29;19906;-87
2022/10/18 02:12:17;;;;;;;;;;;12.40;87.00;;;;;;2042490;28;20420;-88
2022/10/18 02:13:19;;;;;;;;;;;12.40;87.00;;;;;;2053571;28;19961;-85
2022/10/18 02:14:22;;;;;;;;;;;12.40;86.70;;;;;;2043218;29;20381;-87
2022/10/18 02:15:25;;;;;;;;;;;12.40;86.70;;;;;;2043311;28;19927;-85
2022/10/18 02:16:28;;;;;;;;;;;12.40;86.70;;;;;;2050989;29;20233;-85
2022/10/18 02:17:29;;;;;;;;;;;12.30;86.70;;;;;;2043572;28;20010;-87
2022/10/18 02:18:35;;;;;;;;;;;12.40;86.90;;;;;;2050261;28;20290;-88
2022/10/18 02:19:46;;;;;;;;;;;12.30;87.60;;;;;;2051699;28;19965;-86
2022/10/18 02:20:47;;;;;;;;;;;12.40;86.90;;;;;;2050961;28;19907;-85
2022/10/18 02:21:49;;;;;;;;;;;12.30;86.70;;;;;;2051502;28;19910;-85
2022/10/18 02:22:50;;;;;;;;;;;12.30;86.70;;;;;;2051707;28;19980;-85
2022/10/18 02:23:52;;;;;;;;;;;12.30;86.90;;;;;;2050910;28;20244;-86
2022/10/18 02:24:55;;;;;;;;;;;12.30;86.60;;;;;;2050989;28;19911;-86
2022/10/18 02:25:56;;;;;;;;;;;12.30;86.40;;;;;;2058348;28;19910;-88
2022/10/18 02:26:56;;;;;;;;;;;12.30;86.50;;;;;;2058577;28;19960;-89
2022/10/18 02:27:57;;;;;;;;;;;12.30;86.30;;;;;;2058489;28;19941;-86
2022/10/18 02:28:58;;;;;;;;;;;12.30;86.50;;;;;;2058259;28;19906;-87
2022/10/18 02:29:59;;;;;;;;;;;12.30;86.60;;;;;;2065451;28;19944;-86
2022/10/18 02:31:05;;;;;;;;;;;12.30;86.60;;;;;;2058751;28;19914;-87
2022/10/18 02:32:21;;;;;;;;;;;12.30;86.30;;;;;;2045425;28;19964;-87
2022/10/18 02:33:31;;;;;;;;;;;12.30;86.20;;;;;;2048366;29;20194;-87
2022/10/18 02:34:36;;;;;;;;;;;12.30;86.40;;;;;;2049949;28;19993;-87
2022/10/18 02:35:43;;;;;;;;;;;12.30;86.60;;;;;;2051480;28;19910;-84
2022/10/18 02:36:46;;;;;;;;;;;12.20;86.60;;;;;;2046672;28;20360;-89
2022/10/18 02:37:48;;;;;;;;;;;12.20;86.60;;;;;;2050589;29;20341;-89
2022/10/18 02:38:52;;;;;;;;;;;12.20;86.40;;;;;;2050361;28;20017;-87
2022/10/18 02:39:52;;;;;;;;;;;12.20;86.50;;;;;;2058396;28;19909;-89
2022/10/18 02:40:54;;;;;;;;;;;12.30;86.60;;;;;;2057284;28;19906;-88
2022/10/18 02:41:55;;;;;;;;;;;12.20;86.70;;;;;;2064777;28;19917;-88
2022/10/18 02:42:57;;;;;;;;;;;12.20;86.80;;;;;;2050986;28;20284;-86
2022/10/18 02:43:58;;;;;;;;;;;12.20;86.60;;;;;;2050840;28;19906;-89
2022/10/18 02:44:58;;;;;;;;;;;12.20;86.60;;;;;;2042209;29;19942;-88
2022/10/18 02:45:59;;;;;;;;;;;12.20;86.60;;;;;;2042874;29;19945;-89
2022/10/18 02:47:00;;;;;;;;;;;12.20;86.20;;;;;;2037797;29;19942;-86
2022/10/18 02:48:01;;;;;;;;;;;12.20;86.40;;;;;;2043052;28;19911;-89
2022/10/18 02:49:02;;;;;;;;;;;12.10;86.50;;;;;;2058802;28;19910;-85
2022/10/18 02:50:03;;;;;;;;;;;12.10;86.60;;;;;;2053561;28;20005;-88
2022/10/18 02:51:04;;;;;;;;;;;12.20;86.60;;;;;;2050835;29;19918;-87
2022/10/18 02:52:05;;;;;;;;;;;12.20;86.60;;;;;;2049985;28;19906;-87
2022/10/18 02:53:05;;;;;;;;;;;12.20;86.60;;;;;;2042792;29;19917;-88
2022/10/18 02:54:07;;;;;;;;;;;12.10;86.30;;;;;;2042752;29;19982;-88
2022/10/18 02:55:08;;;;;;;;;;;12.10;86.30;;;;;;2040165;29;20400;-89
2022/10/18 02:56:09;;;;;;;;;;;12.10;86.30;;;;;;2034868;29;19907;-85
2022/10/18 02:57:09;;;;;;;;;;;12.10;86.40;;;;;;2050630;29;19955;-89
2022/10/18 02:58:10;;;;;;;;;;;12.10;86.40;;;;;;2042761;29;20019;-88
2022/10/18 02:59:11;;;;;;;;;;;12.10;86.60;;;;;;2049795;28;19933;-87
2022/10/18 03:00:12;;;;;;;;;;;12.00;86.50;;;;;;2037205;29;19919;-86
2022/10/18 03:01:12;;;;;;;;;;;12.00;86.40;;;;;;2042762;29;20324;-87
2022/10/18 03:02:13;;;;;;;;;;;12.00;86.40;;;;;;2046158;29;19911;-89
2022/10/18 03:03:14;;;;;;;;;;;12.00;86.40;;;;;;2042845;29;19911;-89
2022/10/18 03:04:14;;;;;;;;;;;12.10;86.40;;;;;;2049938;28;20355;-87
2022/10/18 03:05:16;;;;;;;;;;;12.00;86.10;;;;;;2054571;28;20037;-88
2022/10/18 03:06:16;;;;;;;;;;;12.00;86.40;;;;;;2050677;28;19911;-87
2022/10/18 03:07:17;;;;;;;;;;;12.00;86.50;;;;;;2058398;28;19972;-86
2022/10/18 03:08:18;;;;;;;;;;;12.00;86.30;;;;;;2050654;29;19929;-88
2022/10/18 03:09:19;;;;;;;;;;;12.00;86.20;;;;;;2050682;28;19917;-87
2022/10/18 03:10:19;;;;;;;;;;;12.00;86.40;;;;;;2050584;28;19906;-88
2022/10/18 03:11:21;;;;;;;;;;;12.00;86.20;;;;;;2050684;29;19906;-87
2022/10/18 03:12:22;;;;;;;;;;;12.00;86.40;;;;;;2045976;29;19914;-89
2022/10/18 03:13:22;;;;;;;;;;;12.00;86.10;;;;;;2042914;29;19938;-88
2022/10/18 03:14:23;;;;;;;;;;;11.90;86.20;;;;;;2042611;29;19911;-87
2022/10/18 03:15:24;;;;;;;;;;;11.90;86.20;;;;;;2043891;28;20330;-86
2022/10/18 03:16:25;;;;;;;;;;;11.90;86.00;;;;;;2050575;29;20328;-89
2022/10/18 03:17:25;;;;;;;;;;;11.90;86.00;;;;;;2042686;29;19942;-87
2022/10/18 03:18:26;;;;;;;;;;;11.90;86.10;;;;;;2057895;28;19918;-88
2022/10/18 03:19:27;;;;;;;;;;;11.90;86.30;;;;;;2066429;28;19960;-87
2022/10/18 03:20:27;;;;;;;;;;;11.90;86.40;;;;;;2059459;28;19910;-85
2022/10/18 03:21:28;;;;;;;;;;;11.90;86.20;;;;;;2066641;28;20307;-85
2022/10/18 03:22:29;;;;;;;;;;;11.90;86.10;;;;;;2058476;28;19910;-86
2022/10/18 03:23:30;;;;;;;;;;;11.90;86.20;;;;;;2058589;28;19906;-86
2022/10/18 03:24:30;;;;;;;;;;;11.80;86.10;;;;;;2043879;29;19907;-89
2022/10/18 03:25:31;;;;;;;;;;;11.90;86.10;;;;;;2041923;29;19914;-86
2022/10/18 03:26:32;;;;;;;;;;;11.90;86.00;;;;;;2037552;29;19914;-88
2022/10/18 03:27:33;;;;;;;;;;;11.90;86.00;;;;;;2043129;29;19907;-85
2022/10/18 03:28:33;;;;;;;;;;;11.90;86.20;;;;;;2052230;29;19910;-88
2022/10/18 03:29:34;;;;;;;;;;;11.80;86.20;;;;;;2049871;29;19989;-89
2022/10/18 03:30:35;;;;;;;;;;;11.80;86.40;;;;;;2059285;28;19968;-84
2022/10/18 03:31:36;;;;;;;;;;;11.80;86.40;;;;;;2051680;29;19963;-84
2022/10/18 03:32:37;;;;;;;;;;;11.80;86.50;;;;;;2048515;28;19917;-85
2022/10/18 03:33:37;;;;;;;;;;;11.80;86.50;;;;;;2052294;28;19910;-85
2022/10/18 03:34:38;;;;;;;;;;;11.80;86.60;;;;;;2068113;28;20000;-86
2022/10/18 03:35:39;;;;;;;;;;;11.80;86.80;;;;;;2060290;28;19906;-89
2022/10/18 03:36:40;;;;;;;;;;;11.80;86.70;;;;;;2060131;28;20380;-86
2022/10/18 03:37:41;;;;;;;;;;;11.80;86.80;;;;;;2068154;28;20234;-86
2022/10/18 03:38:41;;;;;;;;;;;11.70;86.70;;;;;;2059481;28;19929;-87
2022/10/18 03:39:42;;;;;;;;;;;11.70;86.80;;;;;;2052049;28;20355;-88
2022/10/18 03:40:43;;;;;;;;;;;11.70;86.60;;;;;;2036460;29;19919;-86
2022/10/18 03:41:44;;;;;;;;;;;11.70;86.60;;;;;;2044190;29;20027;-87
2022/10/18 03:42:45;;;;;;;;;;;11.70;86.50;;;;;;2045094;29;19954;-85
2022/10/18 03:43:45;;;;;;;;;;;11.80;86.40;;;;;;2057212;28;19921;-86
2022/10/18 03:44:46;;;;;;;;;;;11.70;86.30;;;;;;2052034;28;19976;-85
2022/10/18 03:45:47;;;;;;;;;;;11.80;86.30;;;;;;2046441;28;19989;-88
2022/10/18 03:46:48;;;;;;;;;;;11.70;86.20;;;;;;2037771;29;19997;-89
2022/10/18 03:47:48;;;;;;;;;;;11.70;86.20;;;;;;2045227;29;19911;-90
2022/10/18 03:48:49;;;;;;;;;;;11.70;86.00;;;;;;2060131;28;19909;-87
2022/10/18 03:49:50;;;;;;;;;;;11.70;85.80;;;;;;2059573;28;20568;-88
2022/10/18 03:50:50;;;;;;;;;;;11.70;85.70;;;;;;2036299;29;19911;-86
2022/10/18 03:51:51;;;;;;;;;;;11.70;85.70;;;;;;2049543;29;19920;-87
2022/10/18 03:52:53;;;;;;;;;;;11.70;86.00;;;;;;2059959;28;19910;-89
2022/10/18 03:53:54;;;;;;;;;;;11.70;85.80;;;;;;2059936;28;19913;-87
2022/10/18 03:54:54;;;;;;;;;;;11.60;86.00;;;;;;2059885;28;19907;-86
2022/10/18 03:55:55;;;;;;;;;;;11.60;86.00;;;;;;2059289;28;19909;-89
2022/10/18 03:56:56;;;;;;;;;;;11.60;85.90;;;;;;2058002;28;20418;-86
2022/10/18 03:57:57;;;;;;;;;;;11.60;86.00;;;;;;2051534;28;20018;-87
2022/10/18 03:58:57;;;;;;;;;;;11.60;86.00;;;;;;2043277;29;19961;-88
2022/10/18 03:59:58;;;;;;;;;;;11.60;86.00;;;;;;2058165;28;19910;-89
2022/10/18 04:00:59;;;;;;;;;;;11.60;86.10;;;;;;2036176;29;19969;-88
2022/10/18 04:01:59;;;;;;;;;;;11.60;86.30;;;;;;2044074;29;19910;-90
2022/10/18 04:03:00;;;;;;;;;;;11.60;86.40;;;;;;2043998;29;20253;-86
2022/10/18 04:04:01;;;;;;;;;;;11.60;86.30;;;;;;2067917;28;19964;-87
2022/10/18 04:05:02;;;;;;;;;;;11.60;85.80;;;;;;2051174;29;19974;-86
2022/10/18 04:06:02;;;;;;;;;;;11.60;85.90;;;;;;2043846;28;19915;-85
2022/10/18 04:07:03;;;;;;;;;;;11.60;86.00;;;;;;2051853;28;20404;-88
2022/10/18 04:08:04;;;;;;;;;;;11.50;86.10;;;;;;2043694;29;19915;-83
2022/10/18 04:09:05;;;;;;;;;;;11.50;86.10;;;;;;2059786;28;19921;-88
2022/10/18 04:10:06;;;;;;;;;;;11.50;86.80;;;;;;2051661;29;20277;-86
2022/10/18 04:11:08;;;;;;;;;;;11.50;86.30;;;;;;2057746;28;19910;-86
2022/10/18 04:12:09;;;;;;;;;;;11.50;86.30;;;;;;2053849;28;20000;-87
2022/10/18 04:13:10;;;;;;;;;;;11.50;86.30;;;;;;2043923;29;19924;-89
2022/10/18 04:14:10;;;;;;;;;;;11.50;86.40;;;;;;2043720;29;19907;-88
2022/10/18 04:15:11;;;;;;;;;;;11.40;86.40;;;;;;2038360;29;19911;-87
2022/10/18 04:16:12;;;;;;;;;;;11.50;86.60;;;;;;2043941;29;20413;-85
2022/10/18 04:17:12;;;;;;;;;;;11.40;86.50;;;;;;2051774;28;19953;-88
2022/10/18 04:18:13;;;;;;;;;;;11.40;86.60;;;;;;2050792;28;19958;-87
2022/10/18 04:19:14;;;;;;;;;;;11.50;86.80;;;;;;2050714;29;19910;-85
2022/10/18 04:20:15;;;;;;;;;;;11.40;86.70;;;;;;2051565;29;19916;-88
2022/10/18 04:21:15;;;;;;;;;;;11.50;86.60;;;;;;2052000;28;19918;-88
2022/10/18 04:22:16;;;;;;;;;;;11.40;86.60;;;;;;2059661;28;19914;-86
2022/10/18 04:23:17;;;;;;;;;;;11.40;86.60;;;;;;2059898;28;19949;-88
2022/10/18 04:24:18;;;;;;;;;;;11.50;86.50;;;;;;2059716;28;20098;-89
2022/10/18 04:25:18;;;;;;;;;;;11.40;86.40;;;;;;2044719;28;19907;-85
2022/10/18 04:26:19;;;;;;;;;;;11.40;86.50;;;;;;2048226;28;19910;-88
2022/10/18 04:27:20;;;;;;;;;;;11.40;86.60;;;;;;2046167;29;19907;-89
2022/10/18 04:28:21;;;;;;;;;;;11.40;86.70;;;;;;2036085;29;19911;-88
2022/10/18 04:29:21;;;;;;;;;;;11.40;86.80;;;;;;2050619;29;19957;-86
2022/10/18 04:30:22;;;;;;;;;;;11.40;86.90;;;;;;2045112;29;20356;-86
2022/10/18 04:31:23;;;;;;;;;;;11.40;87.00;;;;;;2043858;29;19967;-86
2022/10/18 04:32:25;;;;;;;;;;;11.40;86.90;;;;;;2047002;29;19946;-86
2022/10/18 04:33:26;;;;;;;;;;;11.40;86.90;;;;;;2044005;29;19994;-88
2022/10/18 04:34:26;;;;;;;;;;;11.40;86.90;;;;;;2044687;29;19915;-86
2022/10/18 04:35:27;;;;;;;;;;;11.40;86.80;;;;;;2051760;29;19910;-88
2022/10/18 04:36:28;;;;;;;;;;;11.40;86.80;;;;;;2043955;29;19906;-85
2022/10/18 04:37:28;;;;;;;;;;;11.40;86.80;;;;;;2059729;28;20000;-86
2022/10/18 04:38:29;;;;;;;;;;;11.40;86.80;;;;;;2050792;28;19949;-89
2022/10/18 04:39:30;;;;;;;;;;;11.40;86.80;;;;;;2050530;28;19981;-90
2022/10/18 04:40:30;;;;;;;;;;;11.40;86.80;;;;;;2051679;29;19917;-89
2022/10/18 04:41:31;;;;;;;;;;;11.40;86.90;;;;;;2059667;28;20353;-89
2022/10/18 04:42:32;;;;;;;;;;;11.40;86.90;;;;;;2067683;28;19921;-88
2022/10/18 04:43:33;;;;;;;;;;;11.40;87.00;;;;;;2059379;28;19914;-87
2022/10/18 04:44:33;;;;;;;;;;;11.40;87.00;;;;;;2057297;28;19910;-86
2022/10/18 04:45:34;;;;;;;;;;;11.40;87.00;;;;;;2067028;28;20011;-87
2022/10/18 04:46:35;;;;;;;;;;;11.40;87.00;;;;;;2059597;28;19917;-87
2022/10/18 04:47:36;;;;;;;;;;;11.40;87.10;;;;;;2059955;28;19921;-88
2022/10/18 04:48:37;;;;;;;;;;;11.40;87.00;;;;;;2052313;28;19917;-86
2022/10/18 04:49:37;;;;;;;;;;;11.40;87.00;;;;;;2051648;28;19917;-88
2022/10/18 04:50:38;;;;;;;;;;;11.40;87.00;;;;;;2043997;29;19918;-88
2022/10/18 04:51:47;;;;;;;;;;;11.30;87.10;;;;;;2044168;29;19942;-87
2022/10/18 04:52:48;;;;;;;;;;;11.40;86.90;;;;;;2045168;28;19922;-88
2022/10/18 04:53:49;;;;;;;;;;;11.40;86.90;;;;;;2044042;29;19918;-87
2022/10/18 04:54:49;;;;;;;;;;;11.40;87.00;;;;;;2046266;29;19911;-89
2022/10/18 04:55:50;;;;;;;;;;;11.40;86.80;;;;;;2043582;28;19911;-87
2022/10/18 04:56:51;;;;;;;;;;;11.40;87.00;;;;;;2054387;28;19945;-88
2022/10/18 04:57:52;;;;;;;;;;;11.30;87.00;;;;;;2059769;28;19918;-86
2022/10/18 04:58:52;;;;;;;;;;;11.30;87.10;;;;;;2058896;28;20256;-89
2022/10/18 04:59:53;;;;;;;;;;;11.30;87.20;;;;;;2051757;29;19969;-87
2022/10/18 05:00:54;;;;;;;;;;;11.30;87.20;;;;;;2059705;28;19906;-87
2022/10/18 05:01:55;;;;;;;;;;;11.30;87.20;;;;;;2051676;28;19910;-88
2022/10/18 05:02:56;;;;;;;;;;;11.30;86.90;;;;;;2051829;29;19953;-88
2022/10/18 05:03:57;;;;;;;;;;;11.30;87.00;;;;;;2067522;28;19921;-87
2022/10/18 05:04:58;;;;;;;;;;;11.30;87.10;;;;;;2064523;28;19972;-88
2022/10/18 05:05:59;;;;;;;;;;;11.30;87.00;;;;;;2051679;29;19985;-90
2022/10/18 05:06:59;;;;;;;;;;;11.30;87.10;;;;;;2043719;29;19906;-87
2022/10/18 05:08:00;;;;;;;;;;;11.30;87.20;;;;;;2043706;29;20361;-89
2022/10/18 05:09:01;;;;;;;;;;;11.30;87.10;;;;;;2050462;29;19961;-86
2022/10/18 05:10:02;;;;;;;;;;;11.20;87.40;;;;;;2051657;28;20450;-87
2022/10/18 05:11:03;;;;;;;;;;;11.30;87.30;;;;;;2067721;28;20360;-88
2022/10/18 05:12:04;;;;;;;;;;;11.30;87.30;;;;;;2050950;28;19910;-86
2022/10/18 05:13:04;;;;;;;;;;;11.30;87.30;;;;;;2043675;29;20317;-88
2022/10/18 05:14:05;;;;;;;;;;;11.30;87.30;;;;;;2054552;28;19906;-88
2022/10/18 05:15:06;;;;;;;;;;;11.20;87.10;;;;;;2051094;28;19915;-86
2022/10/18 05:16:06;;;;;;;;;;;11.20;87.20;;;;;;2051581;28;19965;-89
2022/10/18 05:17:07;;;;;;;;;;;11.20;87.20;;;;;;2053886;28;19989;-86
2022/10/18 05:18:08;;;;;;;;;;;11.20;87.10;;;;;;2051418;29;19924;-89
2022/10/18 05:19:09;;;;;;;;;;;11.20;87.20;;;;;;2050684;29;19907;-88
2022/10/18 05:20:09;;;;;;;;;;;11.20;87.00;;;;;;2059312;28;19920;-89
2022/10/18 05:21:11;;;;;;;;;;;11.20;87.10;;;;;;2051360;28;19914;-86
2022/10/18 05:22:12;;;;;;;;;;;11.20;87.20;;;;;;2057517;28;19910;-89
2022/10/18 05:23:12;;;;;;;;;;;11.20;87.20;;;;;;2051556;28;19921;-89
2022/10/18 05:24:13;;;;;;;;;;;11.20;87.20;;;;;;2057327;28;19921;-89
2022/10/18 05:25:14;;;;;;;;;;;11.10;87.20;;;;;;2047270;29;19912;-88
2022/10/18 05:26:14;;;;;;;;;;;11.20;87.40;;;;;;2051377;28;19907;-87
2022/10/18 05:27:15;;;;;;;;;;;11.20;87.30;;;;;;2055688;28;19969;-88
2022/10/18 05:28:16;;;;;;;;;;;11.20;87.40;;;;;;2035625;29;20431;-88
2022/10/18 05:29:16;;;;;;;;;;;11.20;87.30;;;;;;2041811;28;19907;-89
2022/10/18 05:30:17;;;;;;;;;;;11.20;87.20;;;;;;2050786;28;20357;-86
2022/10/18 05:31:18;;;;;;;;;;;11.20;87.20;;;;;;2057586;28;20265;-87
2022/10/18 05:32:19;;;;;;;;;;;11.20;87.20;;;;;;2042506;29;19958;-86
2022/10/18 05:33:19;;;;;;;;;;;11.20;87.20;;;;;;2043464;29;19946;-89
2022/10/18 05:34:20;;;;;;;;;;;11.20;87.10;;;;;;2049170;29;19907;-88
2022/10/18 05:35:21;;;;;;;;;;;11.20;87.20;;;;;;2043506;29;20340;-85
2022/10/18 05:36:22;;;;;;;;;;;11.10;87.10;;;;;;2048283;28;19922;-85
2022/10/18 05:37:22;;;;;;;;;;;11.10;87.20;;;;;;2048980;28;19945;-85
2022/10/18 05:38:23;;;;;;;;;;;11.10;87.20;;;;;;2056183;28;20368;-88
2022/10/18 05:39:24;;;;;;;;;;;11.10;87.10;;;;;;2049056;29;19910;-89
2022/10/18 05:40:25;;;;;;;;;;;11.10;87.20;;;;;;2050710;28;19921;-89
2022/10/18 05:41:25;;;;;;;;;;;11.10;87.40;;;;;;2042891;29;19907;-86
2022/10/18 05:42:26;;;;;;;;;;;11.10;87.40;;;;;;2051292;29;19985;-88
2022/10/18 05:43:27;;;;;;;;;;;11.10;87.40;;;;;;2052193;28;19954;-88
2022/10/18 05:44:28;;;;;;;;;;;11.10;87.40;;;;;;2058949;28;19917;-88
2022/10/18 05:45:29;;;;;;;;;;;11.10;87.40;;;;;;2050549;29;19933;-88
2022/10/18 05:46:29;;;;;;;;;;;11.10;87.50;;;;;;2055309;28;19909;-89
2022/10/18 05:47:30;;;;;;;;;;;11.10;87.50;;;;;;2059253;28;19906;-87
2022/10/18 05:48:31;;;;;;;;;;;11.10;87.50;;;;;;2051080;29;19993;-88
2022/10/18 05:49:32;;;;;;;;;;;11.10;87.50;;;;;;2052348;28;20381;-85
2022/10/18 05:50:32;;;;;;;;;;;11.10;87.50;;;;;;2055559;28;20041;-85
2022/10/18 05:51:33;;;;;;;;;;;11.10;87.50;;;;;;2042746;28;20345;-88
2022/10/18 05:52:34;;;;;;;;;;;11.10;87.50;;;;;;2050431;28;19983;-86
2022/10/18 05:53:34;;;;;;;;;;;11.10;87.50;;;;;;2051008;29;20317;-85
2022/10/18 05:54:35;;;;;;;;;;;11.10;87.70;;;;;;2034372;29;19997;-87
2022/10/18 05:55:36;;;;;;;;;;;11.10;87.80;;;;;;2035210;29;20001;-86
2022/10/18 05:56:37;;;;;;;;;;;11.10;88.50;;;;;;2048377;29;19934;-86
2022/10/18 05:57:38;;;;;;;;;;;11.10;87.70;;;;;;2046307;28;20017;-88
2022/10/18 05:58:39;;;;;;;;;;;11.10;87.70;;;;;;2042305;29;19915;-89
2022/10/18 05:59:40;;;;;;;;;;;11.10;87.70;;;;;;2040346;29;19907;-84
2022/10/18 06:00:41;;;;;;;;;;;11.10;87.70;;;;;;2050873;29;20062;-89
2022/10/18 06:01:42;;;;;;;;;;;11.10;87.70;;;;;;2051520;28;20059;-90
2022/10/18 06:02:42;;;;;;;;;;;11.10;87.70;;;;;;2043578;29;19922;-87
2022/10/18 06:03:43;;;;;;;;;;;11.10;87.70;;;;;;2043374;28;19921;-89
2022/10/18 06:04:44;;;;;;;;;;;11.10;87.70;;;;;;2051019;29;19918;-87
2022/10/18 06:05:45;;;;;;;;;;;11.00;87.60;;;;;;2034073;29;19911;-90